sensor_id;sensor_type;location;lat;lon;timestamp;pressure;altitude;pressure_sealevel;temperature;humidity
63090;BME280;49174;43.198;27.824;2023-04-25T04:00:26;100829.97;;;11.29;100.00
63090;BME280;49174;43.198;27.824;2023-04-25T04:02:52;100822.06;;;11.28;100.00
63090;BME280;49174;43.198;27.824;2023-04-25T04:05:18;100828.31;;;11.28;100.00
63090;BME280;49174;43.198;27.824;2023-04-25T04:07:43;100839.50;;;11.25;100.00
63090;BME280;49174;43.198;27.824;2023-04-25T04:10:10;100832.31;;;11.04;100.00
63090;BME280;49174;43.198;27.824;2023-04-25T04:12:36;100831.81;;;10.94;100.00
63090;BME280;49174;43.198;27.824;2023-04-25T04:15:02;100835.56;;;10.93;100.00
63090;BME280;49174;43.198;27.824;2023-04-25T04:17:29;100826.84;;;10.98;100.00
63090;BME280;49174;43.198;27.824;2023-04-25T04:19:55;100825.69;;;11.07;100.00
63090;BME280;49174;43.198;27.824;2023-04-25T04:22:22;100822.63;;;11.16;100.00
63090;BME280;49174;43.198;27.824;2023-04-25T04:24:47;100810.00;;;11.24;100.00
63090;BME280;49174;43.198;27.824;2023-04-25T04:27:15;100823.06;;;11.20;100.00
63090;BME280;49174;43.198;27.824;2023-04-25T04:29:43;100824.09;;;11.19;100.00
63090;BME280;49174;43.198;27.824;2023-04-25T04:32:08;100820.75;;;11.17;100.00
63090;BME280;49174;43.198;27.824;2023-04-25T04:34:34;100816.66;;;11.28;100.00
63090;BME280;49174;43.198;27.824;2023-04-25T04:37:00;100810.91;;;11.44;100.00
63090;BME280;49174;43.198;27.824;2023-04-25T04:39:26;100813.50;;;11.59;100.00
63090;BME280;49174;43.198;27.824;2023-04-25T04:41:51;100820.16;;;11.70;100.00
63090;BME280;49174;43.198;27.824;2023-04-25T04:47:07;100818.16;;;11.85;100.00
63090;BME280;49174;43.198;27.824;2023-04-25T04:49:33;100820.06;;;11.98;100.00
63090;BME280;49174;43.198;27.824;2023-04-25T04:51:58;100810.31;;;12.03;100.00
63090;BME280;49174;43.198;27.824;2023-04-25T04:54:25;100808.69;;;12.16;100.00
63090;BME280;49174;43.198;27.824;2023-04-25T04:56:50;100816.19;;;12.27;100.00
63090;BME280;49174;43.198;27.824;2023-04-25T04:59:18;100813.94;;;12.37;100.00
63090;BME280;49174;43.198;27.824;2023-04-25T05:01:44;100808.50;;;12.37;100.00
63090;BME280;49174;43.198;27.824;2023-04-25T05:04:09;100817.03;;;12.41;100.00
63090;BME280;49174;43.198;27.824;2023-04-25T05:06:35;100808.50;;;12.50;100.00
63090;BME280;49174;43.198;27.824;2023-04-25T05:09:01;100809.56;;;12.63;100.00
63090;BME280;49174;43.198;27.824;2023-04-25T05:11:26;100813.50;;;12.67;100.00
63090;BME280;49174;43.198;27.824;2023-04-25T05:13:52;100809.75;;;12.61;100.00
63090;BME280;49174;43.198;27.824;2023-04-25T05:16:18;100808.31;;;12.65;100.00
63090;BME280;49174;43.198;27.824;2023-04-25T05:18:43;100798.72;;;12.76;100.00
63090;BME280;49174;43.198;27.824;2023-04-25T05:21:09;100809.34;;;12.84;100.00
63090;BME280;49174;43.198;27.824;2023-04-25T05:23:34;100805.38;;;12.93;100.00
63090;BME280;49174;43.198;27.824;2023-04-25T05:26:00;100809.50;;;13.03;100.00
63090;BME280;49174;43.198;27.824;2023-04-25T05:41:47;100794.28;;;13.15;100.00
63090;BME280;49174;43.198;27.824;2023-04-25T05:44:13;100784.88;;;13.17;100.00
63090;BME280;49174;43.198;27.824;2023-04-25T05:46:38;100792.78;;;13.26;100.00
63090;BME280;49174;43.198;27.824;2023-04-25T05:49:04;100786.94;;;13.35;100.00
63090;BME280;49174;43.198;27.824;2023-04-25T05:51:30;100783.16;;;13.43;100.00
63090;BME280;49174;43.198;27.824;2023-04-25T05:53:56;100782.94;;;13.51;100.00
63090;BME280;49174;43.198;27.824;2023-04-25T05:56:22;100782.47;;;13.61;100.00
63090;BME280;49174;43.198;27.824;2023-04-25T05:58:47;100787.19;;;13.72;100.00
63090;BME280;49174;43.198;27.824;2023-04-25T06:01:13;100775.03;;;13.81;98.53
63090;BME280;49174;43.198;27.824;2023-04-25T06:03:40;100784.38;;;13.92;97.82
63090;BME280;49174;43.198;27.824;2023-04-25T06:06:08;100776.22;;;13.99;97.50
63090;BME280;49174;43.198;27.824;2023-04-25T06:08:34;100773.38;;;14.12;96.18
63090;BME280;49174;43.198;27.824;2023-04-25T06:11:00;100774.34;;;14.24;96.63
63090;BME280;49174;43.198;27.824;2023-04-25T06:13:26;100776.69;;;14.46;95.48
63090;BME280;49174;43.198;27.824;2023-04-25T06:15:51;100766.28;;;14.68;93.97
63090;BME280;49174;43.198;27.824;2023-04-25T06:18:17;100755.59;;;14.91;92.03
63090;BME280;49174;43.198;27.824;2023-04-25T06:20:42;100759.75;;;15.12;91.17
63090;BME280;49174;43.198;27.824;2023-04-25T06:23:08;100760.44;;;15.26;86.15
63090;BME280;49174;43.198;27.824;2023-04-25T06:25:33;100756.69;;;15.27;86.54
63090;BME280;49174;43.198;27.824;2023-04-25T06:27:59;100766.03;;;15.13;85.03
63090;BME280;49174;43.198;27.824;2023-04-25T06:30:25;100760.50;;;14.83;88.82
63090;BME280;49174;43.198;27.824;2023-04-25T06:32:51;100758.78;;;14.88;89.76
63090;BME280;49174;43.198;27.824;2023-04-25T06:35:18;100761.50;;;15.07;88.04
63090;BME280;49174;43.198;27.824;2023-04-25T06:37:44;100751.22;;;15.09;86.37
63090;BME280;49174;43.198;27.824;2023-04-25T06:40:10;100747.09;;;15.25;87.32
63090;BME280;49174;43.198;27.824;2023-04-25T06:42:36;100739.97;;;15.24;84.75
63090;BME280;49174;43.198;27.824;2023-04-25T06:45:02;100740.72;;;15.31;85.38
63090;BME280;49174;43.198;27.824;2023-04-25T06:47:27;100747.34;;;15.35;85.64
63090;BME280;49174;43.198;27.824;2023-04-25T06:49:53;100750.22;;;15.40;84.31
63090;BME280;49174;43.198;27.824;2023-04-25T06:52:18;100754.69;;;15.53;85.44
63090;BME280;49174;43.198;27.824;2023-04-25T06:54:44;100748.06;;;15.79;83.51
63090;BME280;49174;43.198;27.824;2023-04-25T06:57:10;100737.22;;;15.91;82.46
63090;BME280;49174;43.198;27.824;2023-04-25T06:59:35;100734.56;;;16.14;82.78
63090;BME280;49174;43.198;27.824;2023-04-25T07:02:01;100731.38;;;16.41;80.10
63090;BME280;49174;43.198;27.824;2023-04-25T07:04:27;100740.28;;;16.60;78.69
63090;BME280;49174;43.198;27.824;2023-04-25T07:06:52;100738.41;;;16.72;77.94
63090;BME280;49174;43.198;27.824;2023-04-25T07:09:18;100739.09;;;16.91;75.91
63090;BME280;49174;43.198;27.824;2023-04-25T07:11:44;100739.94;;;17.03;76.71
63090;BME280;49174;43.198;27.824;2023-04-25T07:14:13;100730.16;;;17.31;75.56
63090;BME280;49174;43.198;27.824;2023-04-25T07:16:39;100730.44;;;17.46;75.18
63090;BME280;49174;43.198;27.824;2023-04-25T07:19:05;100728.75;;;17.57;74.63
63090;BME280;49174;43.198;27.824;2023-04-25T07:21:30;100725.25;;;17.73;74.71
63090;BME280;49174;43.198;27.824;2023-04-25T07:23:57;100722.97;;;17.82;70.88
63090;BME280;49174;43.198;27.824;2023-04-25T07:26:22;100721.47;;;17.91;71.56
63090;BME280;49174;43.198;27.824;2023-04-25T07:28:48;100719.22;;;18.00;69.51
63090;BME280;49174;43.198;27.824;2023-04-25T07:31:16;100731.44;;;17.97;68.95
63090;BME280;49174;43.198;27.824;2023-04-25T07:33:44;100714.31;;;18.02;69.14
63090;BME280;49174;43.198;27.824;2023-04-25T07:36:10;100712.06;;;18.33;67.92
63090;BME280;49174;43.198;27.824;2023-04-25T07:38:35;100710.22;;;18.55;64.91
63090;BME280;49174;43.198;27.824;2023-04-25T07:41:01;100708.59;;;18.54;65.02
63090;BME280;49174;43.198;27.824;2023-04-25T07:43:26;100697.47;;;18.78;65.42
63090;BME280;49174;43.198;27.824;2023-04-25T07:45:52;100696.47;;;18.84;63.82
63090;BME280;49174;43.198;27.824;2023-04-25T07:48:18;100691.47;;;19.19;65.04
63090;BME280;49174;43.198;27.824;2023-04-25T07:50:44;100686.09;;;19.30;61.62
63090;BME280;49174;43.198;27.824;2023-04-25T07:53:10;100680.13;;;19.11;63.38
63090;BME280;49174;43.198;27.824;2023-04-25T07:55:36;100676.94;;;19.19;62.04
63090;BME280;49174;43.198;27.824;2023-04-25T07:58:05;100687.03;;;19.40;64.38
63090;BME280;49174;43.198;27.824;2023-04-25T08:00:30;100687.69;;;19.75;61.58
63090;BME280;49174;43.198;27.824;2023-04-25T08:02:56;100686.63;;;19.54;61.72
63090;BME280;49174;43.198;27.824;2023-04-25T08:05:21;100685.19;;;19.46;61.43
63090;BME280;49174;43.198;27.824;2023-04-25T08:07:47;100692.47;;;19.13;62.82
63090;BME280;49174;43.198;27.824;2023-04-25T08:10:12;100688.53;;;19.04;62.57
63090;BME280;49174;43.198;27.824;2023-04-25T08:12:38;100702.06;;;18.94;62.83
63090;BME280;49174;43.198;27.824;2023-04-25T08:15:05;100689.84;;;18.80;63.73
63090;BME280;49174;43.198;27.824;2023-04-25T08:17:31;100697.16;;;18.74;64.39
63090;BME280;49174;43.198;27.824;2023-04-25T08:19:57;100696.28;;;18.35;64.44
63090;BME280;49174;43.198;27.824;2023-04-25T08:22:22;100688.78;;;18.08;64.24
63090;BME280;49174;43.198;27.824;2023-04-25T08:24:48;100696.38;;;18.06;65.82
63090;BME280;49174;43.198;27.824;2023-04-25T08:27:13;100700.13;;;17.88;66.59
63090;BME280;49174;43.198;27.824;2023-04-25T08:29:39;100697.81;;;17.80;67.78
63090;BME280;49174;43.198;27.824;2023-04-25T08:32:05;100691.03;;;17.82;67.96
63090;BME280;49174;43.198;27.824;2023-04-25T08:34:30;100694.94;;;17.86;68.13
63090;BME280;49174;43.198;27.824;2023-04-25T08:36:56;100695.38;;;17.67;69.34
63090;BME280;49174;43.198;27.824;2023-04-25T08:39:21;100683.22;;;17.74;70.08
63090;BME280;49174;43.198;27.824;2023-04-25T08:41:47;100692.16;;;17.70;67.89
63090;BME280;49174;43.198;27.824;2023-04-25T08:44:13;100696.63;;;17.76;70.31
63090;BME280;49174;43.198;27.824;2023-04-25T08:46:39;100696.19;;;17.96;66.58
63090;BME280;49174;43.198;27.824;2023-04-25T08:49:08;100697.19;;;18.06;66.23
63090;BME280;49174;43.198;27.824;2023-04-25T08:51:36;100696.38;;;18.23;67.33
63090;BME280;49174;43.198;27.824;2023-04-25T08:54:09;100700.66;;;18.36;65.57
63090;BME280;49174;43.198;27.824;2023-04-25T08:56:43;100702.13;;;18.43;64.90
63090;BME280;49174;43.198;27.824;2023-04-25T08:59:11;100697.97;;;18.58;64.35
63090;BME280;49174;43.198;27.824;2023-04-25T09:04:19;100702.69;;;18.62;61.99
63090;BME280;49174;43.198;27.824;2023-04-25T09:06:46;100702.19;;;18.65;63.49
63090;BME280;49174;43.198;27.824;2023-04-25T09:09:11;100697.97;;;18.74;63.09
63090;BME280;49174;43.198;27.824;2023-04-25T09:11:37;100696.78;;;18.87;62.42
63090;BME280;49174;43.198;27.824;2023-04-25T09:14:15;100695.59;;;19.00;62.26
63090;BME280;49174;43.198;27.824;2023-04-25T09:19:23;100697.22;;;18.79;62.98
63090;BME280;49174;43.198;27.824;2023-04-25T09:21:49;100695.16;;;18.86;62.66
63090;BME280;49174;43.198;27.824;2023-04-25T09:24:15;100698.25;;;18.95;62.71
63090;BME280;49174;43.198;27.824;2023-04-25T09:26:41;100698.25;;;18.95;59.46
63090;BME280;49174;43.198;27.824;2023-04-25T09:29:07;100690.31;;;18.93;60.29
63090;BME280;49174;43.198;27.824;2023-04-25T09:31:33;100690.13;;;19.00;63.18
63090;BME280;49174;43.198;27.824;2023-04-25T09:33:59;100689.41;;;19.10;62.42
63090;BME280;49174;43.198;27.824;2023-04-25T09:36:30;100688.72;;;19.19;61.37
63090;BME280;49174;43.198;27.824;2023-04-25T09:38:55;100686.66;;;19.32;62.42
63090;BME280;49174;43.198;27.824;2023-04-25T09:41:24;100675.09;;;19.25;61.21
63090;BME280;49174;43.198;27.824;2023-04-25T09:43:50;100668.72;;;19.19;60.24
63090;BME280;49174;43.198;27.824;2023-04-25T09:46:16;100669.63;;;19.25;63.82
63090;BME280;49174;43.198;27.824;2023-04-25T09:48:49;100669.94;;;19.55;61.94
63090;BME280;49174;43.198;27.824;2023-04-25T09:51:15;100667.50;;;19.81;60.52
63090;BME280;49174;43.198;27.824;2023-04-25T09:53:45;100657.84;;;20.05;59.29
63090;BME280;49174;43.198;27.824;2023-04-25T09:56:18;100653.59;;;20.25;58.10
63090;BME280;49174;43.198;27.824;2023-04-25T09:58:46;100658.53;;;20.23;58.64
63090;BME280;49174;43.198;27.824;2023-04-25T10:01:12;100654.81;;;20.44;58.03
63090;BME280;49174;43.198;27.824;2023-04-25T10:03:40;100649.78;;;20.68;55.52
63090;BME280;49174;43.198;27.824;2023-04-25T10:06:26;100655.13;;;20.95;55.92
63090;BME280;49174;43.198;27.824;2023-04-25T10:09:12;100647.16;;;20.94;55.66
63090;BME280;49174;43.198;27.824;2023-04-25T10:11:39;100643.72;;;21.34;51.92
63090;BME280;49174;43.198;27.824;2023-04-25T10:14:06;100637.75;;;21.83;55.58
63090;BME280;49174;43.198;27.824;2023-04-25T10:16:32;100634.44;;;22.38;53.33
63090;BME280;49174;43.198;27.824;2023-04-25T10:18:57;100626.69;;;22.55;49.94
63090;BME280;49174;43.198;27.824;2023-04-25T10:21:24;100624.50;;;22.52;49.41
63090;BME280;49174;43.198;27.824;2023-04-25T10:23:52;100619.56;;;22.54;50.77
63090;BME280;49174;43.198;27.824;2023-04-25T10:26:19;100616.44;;;22.76;50.28
63090;BME280;49174;43.198;27.824;2023-04-25T10:29:02;100606.13;;;23.12;48.18
63090;BME280;49174;43.198;27.824;2023-04-25T10:31:29;100603.75;;;22.85;45.83
63090;BME280;49174;43.198;27.824;2023-04-25T10:33:56;100599.97;;;22.71;45.49
63090;BME280;49174;43.198;27.824;2023-04-25T10:36:23;100599.66;;;22.83;46.68
63090;BME280;49174;43.198;27.824;2023-04-25T10:38:50;100596.66;;;23.29;45.20
63090;BME280;49174;43.198;27.824;2023-04-25T10:41:18;100590.34;;;23.28;45.33
63090;BME280;49174;43.198;27.824;2023-04-25T10:43:48;100588.88;;;23.41;49.07
63090;BME280;49174;43.198;27.824;2023-04-25T10:46:15;100588.19;;;23.94;46.21
63090;BME280;49174;43.198;27.824;2023-04-25T10:48:49;100583.47;;;23.99;45.42
63090;BME280;49174;43.198;27.824;2023-04-25T10:56:28;100578.47;;;23.67;44.38
63090;BME280;49174;43.198;27.824;2023-04-25T10:59:16;100574.06;;;22.87;45.10
63090;BME280;49174;43.198;27.824;2023-04-25T11:01:46;100578.25;;;22.69;46.98
63090;BME280;49174;43.198;27.824;2023-04-25T11:04:28;100577.63;;;22.88;45.55
63090;BME280;49174;43.198;27.824;2023-04-25T11:09:39;100575.28;;;23.15;49.14
63090;BME280;49174;43.198;27.824;2023-04-25T11:12:07;100584.75;;;21.57;52.41
63090;BME280;49174;43.198;27.824;2023-04-25T11:14:34;100579.25;;;21.73;54.15
63090;BME280;49174;43.198;27.824;2023-04-25T11:17:00;100582.25;;;22.07;53.35
63090;BME280;49174;43.198;27.824;2023-04-25T11:19:28;100583.34;;;22.16;53.54
63090;BME280;49174;43.198;27.824;2023-04-25T11:21:58;100577.59;;;22.07;52.94
63090;BME280;49174;43.198;27.824;2023-04-25T11:24:29;100568.22;;;22.14;52.71
63090;BME280;49174;43.198;27.824;2023-04-25T11:26:55;100570.47;;;21.96;53.51
63090;BME280;49174;43.198;27.824;2023-04-25T11:29:26;100564.16;;;21.70;53.31
63090;BME280;49174;43.198;27.824;2023-04-25T11:31:53;100566.09;;;21.75;54.36
63090;BME280;49174;43.198;27.824;2023-04-25T11:34:21;100571.56;;;21.75;53.65
63090;BME280;49174;43.198;27.824;2023-04-25T11:36:47;100556.47;;;21.88;54.02
63090;BME280;49174;43.198;27.824;2023-04-25T11:39:12;100555.63;;;22.02;52.00
63090;BME280;49174;43.198;27.824;2023-04-25T11:41:38;100561.09;;;22.02;53.59
63090;BME280;49174;43.198;27.824;2023-04-25T11:44:05;100555.91;;;21.96;52.81
63090;BME280;49174;43.198;27.824;2023-04-25T11:46:33;100551.25;;;21.86;53.20
63090;BME280;49174;43.198;27.824;2023-04-25T11:48:59;100552.59;;;21.94;53.00
63090;BME280;49174;43.198;27.824;2023-04-25T11:51:24;100539.63;;;22.15;51.06
63090;BME280;49174;43.198;27.824;2023-04-25T11:53:50;100545.97;;;22.20;52.33
63090;BME280;49174;43.198;27.824;2023-04-25T11:56:16;100545.41;;;22.28;52.27
63090;BME280;49174;43.198;27.824;2023-04-25T11:59:14;100531.22;;;22.71;50.48
63090;BME280;49174;43.198;27.824;2023-04-25T12:01:48;100525.50;;;22.57;50.07
63090;BME280;49174;43.198;27.824;2023-04-25T12:06:40;100523.47;;;21.98;50.48
63090;BME280;49174;43.198;27.824;2023-04-25T12:09:08;100511.97;;;21.75;51.75
63090;BME280;49174;43.198;27.824;2023-04-25T12:11:54;100515.03;;;21.69;50.82
63090;BME280;49174;43.198;27.824;2023-04-25T12:14:24;100521.84;;;21.86;48.92
63090;BME280;49174;43.198;27.824;2023-04-25T12:16:50;100525.63;;;22.32;49.73
63090;BME280;49174;43.198;27.824;2023-04-25T12:19:19;100523.47;;;22.08;49.16
63090;BME280;49174;43.198;27.824;2023-04-25T12:21:45;100525.13;;;21.99;48.47
63090;BME280;49174;43.198;27.824;2023-04-25T12:24:17;100511.72;;;21.72;47.68
63090;BME280;49174;43.198;27.824;2023-04-25T12:27:01;100506.97;;;20.70;50.55
63090;BME280;49174;43.198;27.824;2023-04-25T12:29:29;100504.28;;;20.22;52.25
63090;BME280;49174;43.198;27.824;2023-04-25T12:31:55;100507.13;;;19.90;52.29
63090;BME280;49174;43.198;27.824;2023-04-25T12:34:21;100495.66;;;19.61;53.30
63090;BME280;49174;43.198;27.824;2023-04-25T12:36:48;100495.09;;;19.54;54.57
63090;BME280;49174;43.198;27.824;2023-04-25T12:41:43;100501.19;;;19.29;56.43
63090;BME280;49174;43.198;27.824;2023-04-25T12:44:09;100497.28;;;19.19;55.90
63090;BME280;49174;43.198;27.824;2023-04-25T12:46:35;100493.16;;;19.17;55.99
63090;BME280;49174;43.198;27.824;2023-04-25T12:49:01;100494.44;;;19.09;56.74
63090;BME280;49174;43.198;27.824;2023-04-25T12:51:26;100503.69;;;19.03;56.61
63090;BME280;49174;43.198;27.824;2023-04-25T12:53:53;100495.50;;;19.08;57.82
63090;BME280;49174;43.198;27.824;2023-04-25T12:56:19;100490.78;;;18.98;60.72
63090;BME280;49174;43.198;27.824;2023-04-25T12:58:45;100485.72;;;18.63;62.03
63090;BME280;49174;43.198;27.824;2023-04-25T13:01:10;100485.44;;;18.60;62.99
63090;BME280;49174;43.198;27.824;2023-04-25T13:03:37;100488.69;;;18.57;64.16
63090;BME280;49174;43.198;27.824;2023-04-25T13:06:03;100490.00;;;18.54;62.79
63090;BME280;49174;43.198;27.824;2023-04-25T13:08:29;100495.47;;;18.54;63.47
63090;BME280;49174;43.198;27.824;2023-04-25T13:10:55;100491.31;;;18.73;62.55
63090;BME280;49174;43.198;27.824;2023-04-25T13:13:20;100488.38;;;18.75;63.19
63090;BME280;49174;43.198;27.824;2023-04-25T13:15:46;100490.84;;;18.77;63.18
63090;BME280;49174;43.198;27.824;2023-04-25T13:18:11;100486.38;;;18.70;62.29
63090;BME280;49174;43.198;27.824;2023-04-25T13:20:37;100487.41;;;18.64;62.94
63090;BME280;49174;43.198;27.824;2023-04-25T13:23:03;100493.38;;;18.61;63.06
63090;BME280;49174;43.198;27.824;2023-04-25T13:25:28;100487.28;;;18.76;66.58
63090;BME280;49174;43.198;27.824;2023-04-25T13:27:54;100489.56;;;18.84;67.87
63090;BME280;49174;43.198;27.824;2023-04-25T13:30:20;100495.38;;;18.93;65.08
63090;BME280;49174;43.198;27.824;2023-04-25T13:32:46;100488.56;;;18.95;64.98
63090;BME280;49174;43.198;27.824;2023-04-25T13:35:13;100486.34;;;18.92;66.86
63090;BME280;49174;43.198;27.824;2023-04-25T13:37:39;100487.41;;;18.86;67.46
63090;BME280;49174;43.198;27.824;2023-04-25T13:40:07;100482.91;;;18.75;66.31
63090;BME280;49174;43.198;27.824;2023-04-25T13:42:35;100479.22;;;18.64;67.17
63090;BME280;49174;43.198;27.824;2023-04-25T13:45:01;100479.47;;;18.41;67.97
63090;BME280;49174;43.198;27.824;2023-04-25T13:47:28;100476.94;;;18.12;68.37
63090;BME280;49174;43.198;27.824;2023-04-25T13:49:56;100466.91;;;17.96;70.63
63090;BME280;49174;43.198;27.824;2023-04-25T13:52:22;100467.09;;;17.72;74.90
63090;BME280;49174;43.198;27.824;2023-04-25T13:54:50;100473.31;;;17.51;75.52
63090;BME280;49174;43.198;27.824;2023-04-25T13:57:17;100469.59;;;17.23;76.53
63090;BME280;49174;43.198;27.824;2023-04-25T13:59:42;100472.41;;;16.94;78.83
63090;BME280;49174;43.198;27.824;2023-04-25T14:02:08;100467.75;;;16.78;79.77
63090;BME280;49174;43.198;27.824;2023-04-25T14:04:34;100479.72;;;16.65;81.33
63090;BME280;49174;43.198;27.824;2023-04-25T14:07:00;100480.91;;;16.29;81.10
63090;BME280;49174;43.198;27.824;2023-04-25T14:09:27;100490.38;;;16.38;81.74
63090;BME280;49174;43.198;27.824;2023-04-25T14:11:53;100493.22;;;16.31;82.23
63090;BME280;49174;43.198;27.824;2023-04-25T14:14:20;100490.66;;;16.25;83.13
63090;BME280;49174;43.198;27.824;2023-04-25T14:16:46;100494.06;;;16.20;81.89
63090;BME280;49174;43.198;27.824;2023-04-25T14:19:16;100499.78;;;16.19;83.36
63090;BME280;49174;43.198;27.824;2023-04-25T14:21:42;100520.84;;;16.12;83.32
63090;BME280;49174;43.198;27.824;2023-04-25T14:24:08;100531.38;;;16.20;82.85
63090;BME280;49174;43.198;27.824;2023-04-25T14:26:34;100545.56;;;16.22;85.21
63090;BME280;49174;43.198;27.824;2023-04-25T14:29:01;100537.25;;;16.28;84.38
63090;BME280;49174;43.198;27.824;2023-04-25T14:31:26;100528.88;;;16.30;83.65
63090;BME280;49174;43.198;27.824;2023-04-25T14:33:53;100539.66;;;16.25;84.41
63090;BME280;49174;43.198;27.824;2023-04-25T14:36:18;100553.84;;;16.27;84.04
63090;BME280;49174;43.198;27.824;2023-04-25T14:38:44;100560.72;;;16.18;87.49
63090;BME280;49174;43.198;27.824;2023-04-25T14:41:09;100578.59;;;16.02;88.57
63090;BME280;49174;43.198;27.824;2023-04-25T14:43:36;100577.75;;;15.90;90.38
63090;BME280;49174;43.198;27.824;2023-04-25T14:46:02;100590.13;;;15.62;89.49
63090;BME280;49174;43.198;27.824;2023-04-25T14:48:29;100590.31;;;15.49;93.14
63090;BME280;49174;43.198;27.824;2023-04-25T14:50:55;100591.22;;;15.31;93.89
63090;BME280;49174;43.198;27.824;2023-04-25T14:53:23;100590.63;;;15.29;94.83
63090;BME280;49174;43.198;27.824;2023-04-25T14:55:49;100581.88;;;15.27;95.83
63090;BME280;49174;43.198;27.824;2023-04-25T14:58:14;100582.06;;;15.13;95.01
63090;BME280;49174;43.198;27.824;2023-04-25T15:00:40;100585.94;;;15.06;95.79
63090;BME280;49174;43.198;27.824;2023-04-25T15:03:06;100581.66;;;14.98;96.44
63090;BME280;49174;43.198;27.824;2023-04-25T15:05:34;100586.13;;;14.92;97.56
63090;BME280;49174;43.198;27.824;2023-04-25T15:08:00;100590.66;;;14.80;98.64
63090;BME280;49174;43.198;27.824;2023-04-25T15:10:25;100586.28;;;14.79;99.17
63090;BME280;49174;43.198;27.824;2023-04-25T15:12:51;100585.91;;;14.75;99.61
63090;BME280;49174;43.198;27.824;2023-04-25T15:15:18;100575.44;;;14.61;100.00
63090;BME280;49174;43.198;27.824;2023-04-25T15:17:44;100570.03;;;14.61;100.00
63090;BME280;49174;43.198;27.824;2023-04-25T15:20:12;100575.81;;;14.46;100.00
63090;BME280;49174;43.198;27.824;2023-04-25T15:22:43;100569.53;;;14.45;100.00
63090;BME280;49174;43.198;27.824;2023-04-25T15:25:10;100563.13;;;14.40;100.00
63090;BME280;49174;43.198;27.824;2023-04-25T15:27:37;100572.19;;;14.34;100.00
63090;BME280;49174;43.198;27.824;2023-04-25T15:30:08;100568.47;;;14.28;100.00
63090;BME280;49174;43.198;27.824;2023-04-25T15:32:36;100557.56;;;14.16;100.00
63090;BME280;49174;43.198;27.824;2023-04-25T15:35:04;100564.78;;;14.22;100.00
63090;BME280;49174;43.198;27.824;2023-04-25T15:37:31;100573.00;;;14.16;100.00
63090;BME280;49174;43.198;27.824;2023-04-25T15:40:07;100571.56;;;14.13;100.00
63090;BME280;49174;43.198;27.824;2023-04-25T15:42:42;100563.44;;;14.13;100.00
63090;BME280;49174;43.198;27.824;2023-04-25T15:45:09;100547.06;;;14.01;100.00
63090;BME280;49174;43.198;27.824;2023-04-25T15:47:36;100545.47;;;13.94;100.00
63090;BME280;49174;43.198;27.824;2023-04-25T15:50:03;100536.97;;;13.90;100.00
63090;BME280;49174;43.198;27.824;2023-04-25T15:52:31;100538.31;;;13.99;100.00
63090;BME280;49174;43.198;27.824;2023-04-25T15:54:56;100536.63;;;13.98;100.00
63090;BME280;49174;43.198;27.824;2023-04-25T15:57:22;100533.34;;;13.96;100.00
63090;BME280;49174;43.198;27.824;2023-04-25T15:59:47;100529.13;;;14.00;100.00
63090;BME280;49174;43.198;27.824;2023-04-25T16:02:15;100525.94;;;14.03;100.00
63090;BME280;49174;43.198;27.824;2023-04-25T16:04:40;100509.47;;;14.05;100.00
63090;BME280;49174;43.198;27.824;2023-04-25T16:07:07;100504.72;;;14.00;100.00
63090;BME280;49174;43.198;27.824;2023-04-25T16:09:34;100502.38;;;14.04;100.00
63090;BME280;49174;43.198;27.824;2023-04-25T16:11:59;100490.78;;;14.15;100.00
63090;BME280;49174;43.198;27.824;2023-04-25T16:14:25;100485.28;;;14.22;100.00
63090;BME280;49174;43.198;27.824;2023-04-25T16:16:51;100477.13;;;14.22;100.00
63090;BME280;49174;43.198;27.824;2023-04-25T16:19:16;100475.25;;;14.22;100.00
63090;BME280;49174;43.198;27.824;2023-04-25T16:21:42;100473.44;;;14.16;100.00
63090;BME280;49174;43.198;27.824;2023-04-25T16:24:08;100476.63;;;14.13;100.00
63090;BME280;49174;43.198;27.824;2023-04-25T16:26:35;100476.16;;;14.16;100.00
63090;BME280;49174;43.198;27.824;2023-04-25T16:29:03;100482.09;;;14.25;100.00
63090;BME280;49174;43.198;27.824;2023-04-25T16:31:29;100473.81;;;14.20;100.00
63090;BME280;49174;43.198;27.824;2023-04-25T16:33:54;100474.13;;;14.12;100.00
63090;BME280;49174;43.198;27.824;2023-04-25T16:36:20;100486.66;;;14.13;100.00
63090;BME280;49174;43.198;27.824;2023-04-25T16:38:45;100477.28;;;14.08;100.00
63090;BME280;49174;43.198;27.824;2023-04-25T16:41:11;100480.91;;;14.02;100.00
63090;BME280;49174;43.198;27.824;2023-04-25T16:43:38;100479.25;;;14.01;100.00
63090;BME280;49174;43.198;27.824;2023-04-25T16:46:05;100480.75;;;13.97;100.00
63090;BME280;49174;43.198;27.824;2023-04-25T16:48:31;100484.91;;;14.00;100.00
63090;BME280;49174;43.198;27.824;2023-04-25T16:50:56;100478.66;;;13.99;100.00
63090;BME280;49174;43.198;27.824;2023-04-25T16:53:22;100481.13;;;14.01;100.00
63090;BME280;49174;43.198;27.824;2023-04-25T16:55:48;100494.09;;;13.99;100.00
63090;BME280;49174;43.198;27.824;2023-04-25T16:58:16;100493.03;;;14.00;100.00
63090;BME280;49174;43.198;27.824;2023-04-25T17:00:42;100495.75;;;14.00;100.00
63090;BME280;49174;43.198;27.824;2023-04-25T17:03:09;100508.25;;;14.01;100.00
63090;BME280;49174;43.198;27.824;2023-04-25T17:05:34;100512.63;;;14.02;100.00
63090;BME280;49174;43.198;27.824;2023-04-25T17:08:00;100517.91;;;13.97;100.00
63090;BME280;49174;43.198;27.824;2023-04-25T17:10:26;100525.38;;;14.01;100.00